Terminal Aerodrome Forecast
Issued by NWS Newport/Morehead City, NC

Home | Current Version | Previous Version | Text Only | Print | Product List | Glossary Off
Versions: 1 2 3 4 5 6 7 8 9 10 11 12 13 14 15 16 17 18 19 20 21

000
FTUS42 KMHX 162300
TAFEWN
TAF
KEWN 162320Z 1700/1724 34005KT P6SM SKC
     FM170300 15003KT P6SM SCT040
     FM170500 03004KT P6SM BKN040
     FM170800 05003KT 5SM BR OVC020
     FM171300 10004KT P6SM SCT030
     FM171900 10005KT P6SM BKN035=

USA.gov is the U.S. government's official web portal to all federal, state and local government web resources and services.